sensor_id;sensor_type;location;lat;lon;timestamp;P1;durP1;ratioP1;P2;durP2;ratioP2
46613;SDS011;32338;50.430;6.806;2023-02-26T00:00:04;9.98;;;1.65;;
46613;SDS011;32338;50.430;6.806;2023-02-26T00:02:35;6.32;;;1.58;;
46613;SDS011;32338;50.430;6.806;2023-02-26T00:05:02;9.10;;;1.70;;
46613;SDS011;32338;50.430;6.806;2023-02-26T00:07:29;8.88;;;1.30;;
46613;SDS011;32338;50.430;6.806;2023-02-26T00:09:58;7.50;;;1.50;;
46613;SDS011;32338;50.430;6.806;2023-02-26T00:12:26;10.50;;;2.55;;
46613;SDS011;32338;50.430;6.806;2023-02-26T00:14:53;15.30;;;1.83;;
46613;SDS011;32338;50.430;6.806;2023-02-26T00:17:25;11.07;;;2.25;;
46613;SDS011;32338;50.430;6.806;2023-02-26T00:19:58;14.32;;;2.20;;
46613;SDS011;32338;50.430;6.806;2023-02-26T00:22:25;15.48;;;2.50;;
46613;SDS011;32338;50.430;6.806;2023-02-26T00:24:52;13.45;;;2.13;;
46613;SDS011;32338;50.430;6.806;2023-02-26T00:27:20;8.93;;;2.40;;
46613;SDS011;32338;50.430;6.806;2023-02-26T00:29:47;12.57;;;2.00;;
46613;SDS011;32338;50.430;6.806;2023-02-26T00:32:15;9.38;;;2.20;;
46613;SDS011;32338;50.430;6.806;2023-02-26T00:34:43;14.55;;;2.25;;
46613;SDS011;32338;50.430;6.806;2023-02-26T00:37:13;12.05;;;2.30;;
46613;SDS011;32338;50.430;6.806;2023-02-26T00:39:55;8.10;;;2.72;;
46613;SDS011;32338;50.430;6.806;2023-02-26T00:42:32;8.68;;;2.20;;
46613;SDS011;32338;50.430;6.806;2023-02-26T00:44:59;8.15;;;1.98;;
46613;SDS011;32338;50.430;6.806;2023-02-26T00:47:28;9.48;;;2.38;;
46613;SDS011;32338;50.430;6.806;2023-02-26T00:50:03;6.03;;;2.00;;
46613;SDS011;32338;50.430;6.806;2023-02-26T00:52:38;5.78;;;2.13;;
46613;SDS011;32338;50.430;6.806;2023-02-26T00:55:11;8.20;;;1.63;;
46613;SDS011;32338;50.430;6.806;2023-02-26T00:57:39;5.65;;;2.03;;
46613;SDS011;32338;50.430;6.806;2023-02-26T01:00:06;9.18;;;2.20;;
46613;SDS011;32338;50.430;6.806;2023-02-26T01:02:34;10.25;;;2.45;;
46613;SDS011;32338;50.430;6.806;2023-02-26T01:05:03;11.88;;;2.10;;
46613;SDS011;32338;50.430;6.806;2023-02-26T01:07:32;7.57;;;1.60;;
46613;SDS011;32338;50.430;6.806;2023-02-26T01:10:05;11.05;;;2.08;;
46613;SDS011;32338;50.430;6.806;2023-02-26T01:12:33;9.43;;;2.17;;
46613;SDS011;32338;50.430;6.806;2023-02-26T01:15:02;6.53;;;1.90;;
46613;SDS011;32338;50.430;6.806;2023-02-26T01:17:30;11.35;;;2.17;;
46613;SDS011;32338;50.430;6.806;2023-02-26T01:20:02;9.90;;;1.48;;
46613;SDS011;32338;50.430;6.806;2023-02-26T01:22:32;11.43;;;2.10;;
46613;SDS011;32338;50.430;6.806;2023-02-26T01:25:06;11.38;;;1.98;;
46613;SDS011;32338;50.430;6.806;2023-02-26T01:27:35;10.10;;;2.13;;
46613;SDS011;32338;50.430;6.806;2023-02-26T01:30:05;10.38;;;2.17;;
46613;SDS011;32338;50.430;6.806;2023-02-26T01:32:37;11.05;;;2.50;;
46613;SDS011;32338;50.430;6.806;2023-02-26T01:35:12;8.50;;;2.40;;
46613;SDS011;32338;50.430;6.806;2023-02-26T01:37:50;7.38;;;2.35;;
46613;SDS011;32338;50.430;6.806;2023-02-26T01:40:27;4.57;;;1.80;;
46613;SDS011;32338;50.430;6.806;2023-02-26T01:43:02;6.43;;;1.88;;
46613;SDS011;32338;50.430;6.806;2023-02-26T01:45:38;11.50;;;2.10;;
46613;SDS011;32338;50.430;6.806;2023-02-26T01:48:20;10.60;;;1.77;;
46613;SDS011;32338;50.430;6.806;2023-02-26T01:50:59;9.18;;;1.55;;
46613;SDS011;32338;50.430;6.806;2023-02-26T01:53:26;15.38;;;4.03;;
46613;SDS011;32338;50.430;6.806;2023-02-26T01:55:54;6.68;;;1.65;;
46613;SDS011;32338;50.430;6.806;2023-02-26T01:58:22;8.02;;;1.77;;
46613;SDS011;32338;50.430;6.806;2023-02-26T02:00:53;7.38;;;1.60;;
46613;SDS011;32338;50.430;6.806;2023-02-26T02:03:20;4.78;;;1.52;;
46613;SDS011;32338;50.430;6.806;2023-02-26T02:05:48;7.20;;;1.50;;
46613;SDS011;32338;50.430;6.806;2023-02-26T02:08:21;3.75;;;1.90;;
46613;SDS011;32338;50.430;6.806;2023-02-26T02:10:48;9.65;;;2.17;;
46613;SDS011;32338;50.430;6.806;2023-02-26T02:13:20;10.02;;;2.35;;
46613;SDS011;32338;50.430;6.806;2023-02-26T02:16:01;7.90;;;2.20;;
46613;SDS011;32338;50.430;6.806;2023-02-26T02:18:41;7.32;;;2.10;;
46613;SDS011;32338;50.430;6.806;2023-02-26T02:21:20;9.93;;;2.42;;
46613;SDS011;32338;50.430;6.806;2023-02-26T02:24:06;11.35;;;2.00;;
46613;SDS011;32338;50.430;6.806;2023-02-26T02:32:32;5.25;;;1.73;;
46613;SDS011;32338;50.430;6.806;2023-02-26T02:35:06;4.97;;;1.98;;
46613;SDS011;32338;50.430;6.806;2023-02-26T02:37:38;9.77;;;2.15;;
46613;SDS011;32338;50.430;6.806;2023-02-26T02:40:11;6.70;;;2.28;;
46613;SDS011;32338;50.430;6.806;2023-02-26T02:42:42;4.60;;;1.90;;
46613;SDS011;32338;50.430;6.806;2023-02-26T02:45:13;3.90;;;1.80;;
46613;SDS011;32338;50.430;6.806;2023-02-26T02:47:47;7.75;;;2.15;;
46613;SDS011;32338;50.430;6.806;2023-02-26T02:50:18;5.40;;;2.00;;
46613;SDS011;32338;50.430;6.806;2023-02-26T02:52:50;10.25;;;2.38;;
46613;SDS011;32338;50.430;6.806;2023-02-26T02:55:23;9.10;;;2.60;;
46613;SDS011;32338;50.430;6.806;2023-02-26T02:57:53;7.97;;;2.40;;
46613;SDS011;32338;50.430;6.806;2023-02-26T03:00:25;7.75;;;2.65;;
46613;SDS011;32338;50.430;6.806;2023-02-26T03:02:57;7.45;;;2.42;;
46613;SDS011;32338;50.430;6.806;2023-02-26T03:05:29;7.63;;;2.60;;
46613;SDS011;32338;50.430;6.806;2023-02-26T03:07:56;10.32;;;2.35;;
46613;SDS011;32338;50.430;6.806;2023-02-26T03:10:27;10.13;;;3.22;;
46613;SDS011;32338;50.430;6.806;2023-02-26T03:12:54;7.18;;;2.88;;
46613;SDS011;32338;50.430;6.806;2023-02-26T03:15:30;10.00;;;2.60;;
46613;SDS011;32338;50.430;6.806;2023-02-26T03:18:05;9.95;;;2.55;;
46613;SDS011;32338;50.430;6.806;2023-02-26T03:20:45;6.40;;;2.65;;
46613;SDS011;32338;50.430;6.806;2023-02-26T03:23:17;4.80;;;2.55;;
46613;SDS011;32338;50.430;6.806;2023-02-26T03:25:47;11.20;;;2.80;;
46613;SDS011;32338;50.430;6.806;2023-02-26T03:28:17;7.43;;;2.97;;
46613;SDS011;32338;50.430;6.806;2023-02-26T03:30:51;8.73;;;2.67;;
46613;SDS011;32338;50.430;6.806;2023-02-26T03:33:26;4.20;;;2.33;;
46613;SDS011;32338;50.430;6.806;2023-02-26T03:35:56;8.27;;;2.85;;
46613;SDS011;32338;50.430;6.806;2023-02-26T03:38:31;10.93;;;3.05;;
46613;SDS011;32338;50.430;6.806;2023-02-26T03:41:03;8.02;;;2.80;;
46613;SDS011;32338;50.430;6.806;2023-02-26T03:43:35;10.25;;;3.25;;
46613;SDS011;32338;50.430;6.806;2023-02-26T03:46:08;6.50;;;3.30;;
46613;SDS011;32338;50.430;6.806;2023-02-26T03:48:40;9.95;;;3.55;;
46613;SDS011;32338;50.430;6.806;2023-02-26T03:51:09;6.40;;;3.65;;
46613;SDS011;32338;50.430;6.806;2023-02-26T03:53:39;6.75;;;3.63;;
46613;SDS011;32338;50.430;6.806;2023-02-26T03:56:14;11.43;;;3.92;;
46613;SDS011;32338;50.430;6.806;2023-02-26T03:58:44;8.30;;;3.95;;
46613;SDS011;32338;50.430;6.806;2023-02-26T04:01:12;13.40;;;4.00;;
46613;SDS011;32338;50.430;6.806;2023-02-26T04:03:45;11.10;;;4.30;;
46613;SDS011;32338;50.430;6.806;2023-02-26T04:06:15;11.23;;;4.13;;
46613;SDS011;32338;50.430;6.806;2023-02-26T04:08:42;14.70;;;4.43;;
46613;SDS011;32338;50.430;6.806;2023-02-26T04:11:10;10.98;;;4.97;;
46613;SDS011;32338;50.430;6.806;2023-02-26T04:13:38;8.57;;;4.32;;
46613;SDS011;32338;50.430;6.806;2023-02-26T04:16:05;10.02;;;4.88;;
46613;SDS011;32338;50.430;6.806;2023-02-26T04:18:32;10.77;;;4.63;;
46613;SDS011;32338;50.430;6.806;2023-02-26T04:21:00;11.65;;;4.75;;
46613;SDS011;32338;50.430;6.806;2023-02-26T04:23:27;8.80;;;5.53;;
46613;SDS011;32338;50.430;6.806;2023-02-26T04:25:54;12.13;;;4.68;;
46613;SDS011;32338;50.430;6.806;2023-02-26T04:28:20;12.27;;;4.65;;
46613;SDS011;32338;50.430;6.806;2023-02-26T04:30:47;7.95;;;4.68;;
46613;SDS011;32338;50.430;6.806;2023-02-26T04:33:14;11.93;;;5.50;;
46613;SDS011;32338;50.430;6.806;2023-02-26T04:35:41;14.57;;;5.50;;
46613;SDS011;32338;50.430;6.806;2023-02-26T04:38:09;12.65;;;4.95;;
46613;SDS011;32338;50.430;6.806;2023-02-26T04:40:35;10.93;;;5.30;;
46613;SDS011;32338;50.430;6.806;2023-02-26T04:43:02;7.55;;;4.75;;
46613;SDS011;32338;50.430;6.806;2023-02-26T04:45:29;7.95;;;4.28;;
46613;SDS011;32338;50.430;6.806;2023-02-26T04:47:56;7.97;;;4.40;;
46613;SDS011;32338;50.430;6.806;2023-02-26T04:50:22;13.75;;;4.13;;
46613;SDS011;32338;50.430;6.806;2023-02-26T04:52:49;12.50;;;4.30;;
46613;SDS011;32338;50.430;6.806;2023-02-26T04:55:20;12.40;;;4.68;;
46613;SDS011;32338;50.430;6.806;2023-02-26T04:57:46;11.05;;;5.35;;
46613;SDS011;32338;50.430;6.806;2023-02-26T05:00:15;7.72;;;3.60;;
46613;SDS011;32338;50.430;6.806;2023-02-26T05:02:43;8.52;;;3.97;;
46613;SDS011;32338;50.430;6.806;2023-02-26T05:05:10;10.73;;;4.45;;
46613;SDS011;32338;50.430;6.806;2023-02-26T05:07:37;9.68;;;4.00;;
46613;SDS011;32338;50.430;6.806;2023-02-26T05:10:04;11.00;;;4.20;;
46613;SDS011;32338;50.430;6.806;2023-02-26T05:12:33;5.07;;;3.85;;
46613;SDS011;32338;50.430;6.806;2023-02-26T05:14:59;6.57;;;3.97;;
46613;SDS011;32338;50.430;6.806;2023-02-26T05:17:26;5.28;;;4.75;;
46613;SDS011;32338;50.430;6.806;2023-02-26T05:19:53;10.43;;;5.03;;
46613;SDS011;32338;50.430;6.806;2023-02-26T05:22:20;8.85;;;4.78;;
46613;SDS011;32338;50.430;6.806;2023-02-26T05:24:47;7.53;;;4.38;;
46613;SDS011;32338;50.430;6.806;2023-02-26T05:27:14;10.75;;;4.65;;
46613;SDS011;32338;50.430;6.806;2023-02-26T05:29:43;8.60;;;5.00;;
46613;SDS011;32338;50.430;6.806;2023-02-26T05:32:10;13.95;;;4.60;;
46613;SDS011;32338;50.430;6.806;2023-02-26T05:34:37;11.10;;;5.00;;
46613;SDS011;32338;50.430;6.806;2023-02-26T05:37:06;12.77;;;4.90;;
46613;SDS011;32338;50.430;6.806;2023-02-26T05:39:33;12.23;;;4.38;;
46613;SDS011;32338;50.430;6.806;2023-02-26T05:42:00;10.07;;;4.50;;
46613;SDS011;32338;50.430;6.806;2023-02-26T05:44:26;15.23;;;4.25;;
46613;SDS011;32338;50.430;6.806;2023-02-26T05:46:55;5.88;;;4.00;;
46613;SDS011;32338;50.430;6.806;2023-02-26T05:49:21;7.45;;;4.35;;
46613;SDS011;32338;50.430;6.806;2023-02-26T05:51:48;7.90;;;4.20;;
46613;SDS011;32338;50.430;6.806;2023-02-26T05:54:15;7.05;;;4.03;;
46613;SDS011;32338;50.430;6.806;2023-02-26T05:56:42;6.90;;;4.75;;
46613;SDS011;32338;50.430;6.806;2023-02-26T05:59:09;8.65;;;4.30;;
46613;SDS011;32338;50.430;6.806;2023-02-26T06:01:35;10.93;;;5.55;;
46613;SDS011;32338;50.430;6.806;2023-02-26T06:04:05;9.27;;;5.55;;
46613;SDS011;32338;50.430;6.806;2023-02-26T06:06:32;9.07;;;5.35;;
46613;SDS011;32338;50.430;6.806;2023-02-26T06:08:59;11.82;;;5.47;;
46613;SDS011;32338;50.430;6.806;2023-02-26T06:11:26;9.68;;;5.70;;
46613;SDS011;32338;50.430;6.806;2023-02-26T06:13:53;12.20;;;5.95;;
46613;SDS011;32338;50.430;6.806;2023-02-26T06:16:20;6.47;;;5.15;;
46613;SDS011;32338;50.430;6.806;2023-02-26T06:18:48;8.30;;;5.03;;
46613;SDS011;32338;50.430;6.806;2023-02-26T06:21:17;7.30;;;4.35;;
46613;SDS011;32338;50.430;6.806;2023-02-26T06:23:44;13.02;;;4.53;;
46613;SDS011;32338;50.430;6.806;2023-02-26T06:26:11;10.73;;;4.95;;
46613;SDS011;32338;50.430;6.806;2023-02-26T06:28:37;13.48;;;4.97;;
46613;SDS011;32338;50.430;6.806;2023-02-26T06:31:04;10.18;;;4.18;;
46613;SDS011;32338;50.430;6.806;2023-02-26T06:33:30;12.45;;;5.00;;
46613;SDS011;32338;50.430;6.806;2023-02-26T06:35:57;6.95;;;4.05;;
46613;SDS011;32338;50.430;6.806;2023-02-26T06:38:26;6.28;;;3.83;;
46613;SDS011;32338;50.430;6.806;2023-02-26T06:40:53;10.57;;;3.47;;
46613;SDS011;32338;50.430;6.806;2023-02-26T06:43:19;7.55;;;3.65;;
46613;SDS011;32338;50.430;6.806;2023-02-26T06:45:46;9.07;;;3.67;;
46613;SDS011;32338;50.430;6.806;2023-02-26T06:48:13;8.50;;;3.65;;
46613;SDS011;32338;50.430;6.806;2023-02-26T06:50:40;4.25;;;2.83;;
46613;SDS011;32338;50.430;6.806;2023-02-26T06:53:06;8.98;;;3.30;;
46613;SDS011;32338;50.430;6.806;2023-02-26T06:55:34;6.87;;;3.60;;
46613;SDS011;32338;50.430;6.806;2023-02-26T06:58:01;6.93;;;3.35;;
46613;SDS011;32338;50.430;6.806;2023-02-26T07:00:27;7.57;;;3.42;;
46613;SDS011;32338;50.430;6.806;2023-02-26T07:02:54;11.40;;;3.10;;
46613;SDS011;32338;50.430;6.806;2023-02-26T07:05:21;4.80;;;3.08;;
46613;SDS011;32338;50.430;6.806;2023-02-26T07:07:47;4.03;;;2.50;;
46613;SDS011;32338;50.430;6.806;2023-02-26T07:10:14;4.00;;;2.50;;
46613;SDS011;32338;50.430;6.806;2023-02-26T07:12:42;8.05;;;2.55;;
46613;SDS011;32338;50.430;6.806;2023-02-26T07:15:09;7.72;;;2.88;;
46613;SDS011;32338;50.430;6.806;2023-02-26T07:17:36;4.47;;;2.70;;
46613;SDS011;32338;50.430;6.806;2023-02-26T07:20:05;5.93;;;2.70;;
46613;SDS011;32338;50.430;6.806;2023-02-26T07:22:34;3.65;;;2.63;;
46613;SDS011;32338;50.430;6.806;2023-02-26T07:25:01;7.35;;;2.65;;
46613;SDS011;32338;50.430;6.806;2023-02-26T07:27:27;6.28;;;3.08;;
46613;SDS011;32338;50.430;6.806;2023-02-26T07:29:58;4.13;;;2.65;;
46613;SDS011;32338;50.430;6.806;2023-02-26T07:32:25;7.38;;;2.67;;
46613;SDS011;32338;50.430;6.806;2023-02-26T07:34:52;6.00;;;2.85;;
46613;SDS011;32338;50.430;6.806;2023-02-26T07:37:19;5.15;;;2.63;;
46613;SDS011;32338;50.430;6.806;2023-02-26T07:39:45;8.07;;;2.50;;
46613;SDS011;32338;50.430;6.806;2023-02-26T07:42:12;8.15;;;2.58;;
46613;SDS011;32338;50.430;6.806;2023-02-26T07:44:39;5.03;;;2.50;;
46613;SDS011;32338;50.430;6.806;2023-02-26T07:47:07;5.80;;;2.53;;
46613;SDS011;32338;50.430;6.806;2023-02-26T07:49:34;6.50;;;2.30;;
46613;SDS011;32338;50.430;6.806;2023-02-26T07:52:00;7.07;;;2.53;;
46613;SDS011;32338;50.430;6.806;2023-02-26T07:54:28;8.60;;;2.40;;
46613;SDS011;32338;50.430;6.806;2023-02-26T07:56:56;6.70;;;2.67;;
46613;SDS011;32338;50.430;6.806;2023-02-26T07:59:23;5.00;;;3.75;;
46613;SDS011;32338;50.430;6.806;2023-02-26T08:01:50;4.65;;;3.08;;
46613;SDS011;32338;50.430;6.806;2023-02-26T08:04:18;5.13;;;2.53;;
46613;SDS011;32338;50.430;6.806;2023-02-26T08:06:44;7.65;;;2.60;;
46613;SDS011;32338;50.430;6.806;2023-02-26T08:09:11;8.55;;;2.72;;
46613;SDS011;32338;50.430;6.806;2023-02-26T08:11:38;9.23;;;3.03;;
46613;SDS011;32338;50.430;6.806;2023-02-26T08:14:07;9.93;;;3.22;;
46613;SDS011;32338;50.430;6.806;2023-02-26T08:16:34;6.07;;;3.15;;
46613;SDS011;32338;50.430;6.806;2023-02-26T08:19:01;7.75;;;3.17;;
46613;SDS011;32338;50.430;6.806;2023-02-26T08:21:29;3.60;;;3.05;;
46613;SDS011;32338;50.430;6.806;2023-02-26T08:23:56;3.42;;;2.60;;
46613;SDS011;32338;50.430;6.806;2023-02-26T08:26:23;5.72;;;2.83;;
46613;SDS011;32338;50.430;6.806;2023-02-26T08:28:50;4.18;;;2.80;;
46613;SDS011;32338;50.430;6.806;2023-02-26T08:31:16;8.68;;;3.35;;
46613;SDS011;32338;50.430;6.806;2023-02-26T08:33:44;7.32;;;3.15;;
46613;SDS011;32338;50.430;6.806;2023-02-26T08:36:11;8.15;;;3.28;;
46613;SDS011;32338;50.430;6.806;2023-02-26T08:38:40;9.30;;;3.47;;
46613;SDS011;32338;50.430;6.806;2023-02-26T08:41:06;9.68;;;3.17;;
46613;SDS011;32338;50.430;6.806;2023-02-26T08:43:33;9.82;;;3.63;;
46613;SDS011;32338;50.430;6.806;2023-02-26T08:46:00;9.20;;;3.17;;
46613;SDS011;32338;50.430;6.806;2023-02-26T08:48:27;4.93;;;3.67;;
46613;SDS011;32338;50.430;6.806;2023-02-26T08:50:54;5.72;;;3.15;;
46613;SDS011;32338;50.430;6.806;2023-02-26T08:53:21;5.18;;;2.25;;
46613;SDS011;32338;50.430;6.806;2023-02-26T08:55:49;7.63;;;2.70;;
46613;SDS011;32338;50.430;6.806;2023-02-26T08:58:17;6.18;;;2.78;;
46613;SDS011;32338;50.430;6.806;2023-02-26T09:00:45;4.40;;;2.67;;
46613;SDS011;32338;50.430;6.806;2023-02-26T09:03:12;6.25;;;2.90;;
46613;SDS011;32338;50.430;6.806;2023-02-26T09:05:40;6.80;;;2.40;;
46613;SDS011;32338;50.430;6.806;2023-02-26T09:08:07;5.45;;;2.47;;
46613;SDS011;32338;50.430;6.806;2023-02-26T09:10:35;23.77;;;11.55;;
46613;SDS011;32338;50.430;6.806;2023-02-26T09:13:06;7.50;;;4.82;;
46613;SDS011;32338;50.430;6.806;2023-02-26T09:15:33;12.40;;;7.05;;
46613;SDS011;32338;50.430;6.806;2023-02-26T09:18:00;6.40;;;4.07;;
46613;SDS011;32338;50.430;6.806;2023-02-26T09:20:26;5.82;;;2.55;;
46613;SDS011;32338;50.430;6.806;2023-02-26T09:22:54;4.43;;;2.47;;
46613;SDS011;32338;50.430;6.806;2023-02-26T09:25:21;4.45;;;2.22;;
46613;SDS011;32338;50.430;6.806;2023-02-26T09:27:49;7.43;;;1.88;;
46613;SDS011;32338;50.430;6.806;2023-02-26T09:30:17;3.50;;;1.75;;
46613;SDS011;32338;50.430;6.806;2023-02-26T09:32:44;10.27;;;2.42;;
46613;SDS011;32338;50.430;6.806;2023-02-26T09:35:11;2.20;;;1.60;;
46613;SDS011;32338;50.430;6.806;2023-02-26T09:37:38;7.68;;;2.15;;
46613;SDS011;32338;50.430;6.806;2023-02-26T09:40:05;2.65;;;1.80;;
46613;SDS011;32338;50.430;6.806;2023-02-26T09:42:42;11.18;;;2.58;;
46613;SDS011;32338;50.430;6.806;2023-02-26T09:45:24;2.60;;;2.00;;
46613;SDS011;32338;50.430;6.806;2023-02-26T09:47:56;3.15;;;1.75;;
46613;SDS011;32338;50.430;6.806;2023-02-26T09:50:27;3.92;;;1.88;;
46613;SDS011;32338;50.430;6.806;2023-02-26T09:53:02;3.40;;;1.65;;
46613;SDS011;32338;50.430;6.806;2023-02-26T09:55:34;5.70;;;2.00;;
46613;SDS011;32338;50.430;6.806;2023-02-26T09:58:09;8.02;;;1.73;;
46613;SDS011;32338;50.430;6.806;2023-02-26T10:00:45;5.80;;;2.17;;
46613;SDS011;32338;50.430;6.806;2023-02-26T10:03:21;2.20;;;1.70;;
46613;SDS011;32338;50.430;6.806;2023-02-26T10:08:44;5.45;;;2.42;;
46613;SDS011;32338;50.430;6.806;2023-02-26T10:11:18;5.88;;;1.88;;
46613;SDS011;32338;50.430;6.806;2023-02-26T10:13:52;5.60;;;3.38;;
46613;SDS011;32338;50.430;6.806;2023-02-26T10:16:27;4.90;;;1.90;;
46613;SDS011;32338;50.430;6.806;2023-02-26T10:18:59;4.88;;;2.53;;
46613;SDS011;32338;50.430;6.806;2023-02-26T10:21:31;3.80;;;1.85;;
46613;SDS011;32338;50.430;6.806;2023-02-26T10:24:03;4.43;;;1.90;;
46613;SDS011;32338;50.430;6.806;2023-02-26T10:26:35;3.22;;;1.92;;
46613;SDS011;32338;50.430;6.806;2023-02-26T10:29:06;3.08;;;1.75;;
46613;SDS011;32338;50.430;6.806;2023-02-26T10:31:48;3.35;;;1.55;;
46613;SDS011;32338;50.430;6.806;2023-02-26T10:34:33;2.05;;;1.65;;
46613;SDS011;32338;50.430;6.806;2023-02-26T10:37:07;2.88;;;1.77;;
46613;SDS011;32338;50.430;6.806;2023-02-26T10:39:43;5.30;;;1.83;;
46613;SDS011;32338;50.430;6.806;2023-02-26T10:42:16;3.70;;;1.88;;
46613;SDS011;32338;50.430;6.806;2023-02-26T10:44:48;2.92;;;1.80;;
46613;SDS011;32338;50.430;6.806;2023-02-26T10:47:26;3.67;;;1.50;;
46613;SDS011;32338;50.430;6.806;2023-02-26T10:50:03;2.38;;;1.50;;
46613;SDS011;32338;50.430;6.806;2023-02-26T10:52:31;4.60;;;1.23;;
46613;SDS011;32338;50.430;6.806;2023-02-26T10:55:02;2.10;;;1.80;;
46613;SDS011;32338;50.430;6.806;2023-02-26T10:57:34;3.65;;;2.00;;
46613;SDS011;32338;50.430;6.806;2023-02-26T11:00:05;2.88;;;1.75;;
46613;SDS011;32338;50.430;6.806;2023-02-26T11:02:37;5.57;;;1.35;;
46613;SDS011;32338;50.430;6.806;2023-02-26T11:05:12;4.55;;;1.50;;
46613;SDS011;32338;50.430;6.806;2023-02-26T11:07:41;3.00;;;1.92;;
46613;SDS011;32338;50.430;6.806;2023-02-26T11:10:14;3.28;;;1.55;;
46613;SDS011;32338;50.430;6.806;2023-02-26T11:12:43;4.07;;;1.85;;
46613;SDS011;32338;50.430;6.806;2023-02-26T11:15:12;4.38;;;1.27;;
46613;SDS011;32338;50.430;6.806;2023-02-26T11:17:41;3.00;;;1.25;;
46613;SDS011;32338;50.430;6.806;2023-02-26T11:20:13;2.55;;;0.90;;
46613;SDS011;32338;50.430;6.806;2023-02-26T11:25:13;1.15;;;0.80;;
46613;SDS011;32338;50.430;6.806;2023-02-26T11:27:43;1.90;;;1.00;;
46613;SDS011;32338;50.430;6.806;2023-02-26T11:30:14;2.72;;;1.10;;
46613;SDS011;32338;50.430;6.806;2023-02-26T11:32:49;8.23;;;0.88;;
46613;SDS011;32338;50.430;6.806;2023-02-26T11:35:18;2.00;;;0.88;;
46613;SDS011;32338;50.430;6.806;2023-02-26T11:37:52;2.10;;;0.77;;
46613;SDS011;32338;50.430;6.806;2023-02-26T11:40:22;3.60;;;0.73;;
46613;SDS011;32338;50.430;6.806;2023-02-26T11:42:57;1.55;;;0.68;;
46613;SDS011;32338;50.430;6.806;2023-02-26T11:45:26;1.80;;;1.00;;
46613;SDS011;32338;50.430;6.806;2023-02-26T11:47:55;1.77;;;1.00;;
46613;SDS011;32338;50.430;6.806;2023-02-26T11:50:26;3.17;;;0.95;;
46613;SDS011;32338;50.430;6.806;2023-02-26T11:52:55;4.50;;;1.08;;
46613;SDS011;32338;50.430;6.806;2023-02-26T11:55:30;2.67;;;0.60;;
46613;SDS011;32338;50.430;6.806;2023-02-26T11:58:14;3.35;;;0.85;;
46613;SDS011;32338;50.430;6.806;2023-02-26T12:00:43;2.10;;;0.80;;
46613;SDS011;32338;50.430;6.806;2023-02-26T12:03:15;4.25;;;1.13;;
46613;SDS011;32338;50.430;6.806;2023-02-26T12:05:45;5.80;;;0.77;;
46613;SDS011;32338;50.430;6.806;2023-02-26T12:08:15;2.42;;;0.73;;
46613;SDS011;32338;50.430;6.806;2023-02-26T12:10:57;1.13;;;0.68;;
46613;SDS011;32338;50.430;6.806;2023-02-26T12:13:33;1.25;;;0.60;;
46613;SDS011;32338;50.430;6.806;2023-02-26T12:16:08;1.40;;;0.57;;
46613;SDS011;32338;50.430;6.806;2023-02-26T12:18:55;1.17;;;0.55;;
46613;SDS011;32338;50.430;6.806;2023-02-26T12:24:14;1.60;;;0.40;;
46613;SDS011;32338;50.430;6.806;2023-02-26T12:27:01;3.03;;;0.50;;
46613;SDS011;32338;50.430;6.806;2023-02-26T12:29:40;2.65;;;0.52;;
46613;SDS011;32338;50.430;6.806;2023-02-26T12:32:23;0.70;;;0.40;;
46613;SDS011;32338;50.430;6.806;2023-02-26T12:35:14;0.77;;;0.40;;
46613;SDS011;32338;50.430;6.806;2023-02-26T12:37:56;1.13;;;0.40;;
46613;SDS011;32338;50.430;6.806;2023-02-26T12:43:31;2.75;;;0.75;;
46613;SDS011;32338;50.430;6.806;2023-02-26T12:46:07;1.73;;;0.90;;
46613;SDS011;32338;50.430;6.806;2023-02-26T12:48:58;2.72;;;0.90;;
46613;SDS011;32338;50.430;6.806;2023-02-26T12:51:44;2.13;;;0.70;;
46613;SDS011;32338;50.430;6.806;2023-02-26T12:54:29;2.10;;;0.52;;
46613;SDS011;32338;50.430;6.806;2023-02-26T12:57:14;0.90;;;0.50;;
46613;SDS011;32338;50.430;6.806;2023-02-26T13:00:02;1.08;;;0.70;;
46613;SDS011;32338;50.430;6.806;2023-02-26T13:05:46;2.55;;;0.70;;
46613;SDS011;32338;50.430;6.806;2023-02-26T13:08:29;3.25;;;0.68;;
46613;SDS011;32338;50.430;6.806;2023-02-26T13:11:04;2.70;;;0.70;;
46613;SDS011;32338;50.430;6.806;2023-02-26T13:13:47;2.67;;;0.40;;
46613;SDS011;32338;50.430;6.806;2023-02-26T13:16:30;2.65;;;0.60;;
46613;SDS011;32338;50.430;6.806;2023-02-26T13:19:07;1.77;;;0.50;;
46613;SDS011;32338;50.430;6.806;2023-02-26T13:21:43;5.40;;;1.15;;
46613;SDS011;32338;50.430;6.806;2023-02-26T13:24:16;5.00;;;1.00;;
46613;SDS011;32338;50.430;6.806;2023-02-26T13:26:45;2.45;;;0.52;;
46613;SDS011;32338;50.430;6.806;2023-02-26T13:29:13;3.45;;;0.73;;
46613;SDS011;32338;50.430;6.806;2023-02-26T13:31:43;1.88;;;0.50;;
46613;SDS011;32338;50.430;6.806;2023-02-26T13:34:14;1.20;;;0.70;;
46613;SDS011;32338;50.430;6.806;2023-02-26T13:36:44;2.25;;;0.90;;
46613;SDS011;32338;50.430;6.806;2023-02-26T13:39:17;1.95;;;0.40;;
46613;SDS011;32338;50.430;6.806;2023-02-26T13:41:56;1.23;;;0.50;;
46613;SDS011;32338;50.430;6.806;2023-02-26T13:44:29;3.08;;;0.60;;
46613;SDS011;32338;50.430;6.806;2023-02-26T13:47:17;2.33;;;0.45;;
46613;SDS011;32338;50.430;6.806;2023-02-26T13:50:00;0.77;;;0.40;;
46613;SDS011;32338;50.430;6.806;2023-02-26T13:52:48;3.25;;;0.60;;
46613;SDS011;32338;50.430;6.806;2023-02-26T13:55:34;0.90;;;0.50;;
46613;SDS011;32338;50.430;6.806;2023-02-26T14:01:03;0.68;;;0.40;;
46613;SDS011;32338;50.430;6.806;2023-02-26T14:03:33;1.50;;;0.50;;
46613;SDS011;32338;50.430;6.806;2023-02-26T14:08:53;1.40;;;0.40;;
46613;SDS011;32338;50.430;6.806;2023-02-26T14:11:33;1.17;;;0.50;;
46613;SDS011;32338;50.430;6.806;2023-02-26T14:16:39;3.42;;;0.80;;
46613;SDS011;32338;50.430;6.806;2023-02-26T14:19:18;5.00;;;0.40;;
46613;SDS011;32338;50.430;6.806;2023-02-26T14:21:48;1.30;;;0.60;;
46613;SDS011;32338;50.430;6.806;2023-02-26T14:24:18;1.00;;;0.70;;
46613;SDS011;32338;50.430;6.806;2023-02-26T14:26:50;5.25;;;0.70;;
46613;SDS011;32338;50.430;6.806;2023-02-26T14:29:36;1.77;;;0.90;;
46613;SDS011;32338;50.430;6.806;2023-02-26T14:32:11;3.00;;;0.90;;
46613;SDS011;32338;50.430;6.806;2023-02-26T14:34:44;1.90;;;0.73;;
46613;SDS011;32338;50.430;6.806;2023-02-26T14:37:15;3.80;;;0.50;;
46613;SDS011;32338;50.430;6.806;2023-02-26T14:39:46;2.28;;;0.55;;
46613;SDS011;32338;50.430;6.806;2023-02-26T14:42:19;1.85;;;0.50;;
46613;SDS011;32338;50.430;6.806;2023-02-26T14:44:49;4.15;;;0.90;;
46613;SDS011;32338;50.430;6.806;2023-02-26T14:47:19;1.45;;;0.43;;
46613;SDS011;32338;50.430;6.806;2023-02-26T14:49:47;1.00;;;0.55;;
46613;SDS011;32338;50.430;6.806;2023-02-26T14:52:30;2.22;;;0.60;;
46613;SDS011;32338;50.430;6.806;2023-02-26T14:55:14;0.77;;;0.40;;
46613;SDS011;32338;50.430;6.806;2023-02-26T14:57:52;2.38;;;0.80;;
46613;SDS011;32338;50.430;6.806;2023-02-26T15:00:32;2.30;;;0.52;;
46613;SDS011;32338;50.430;6.806;2023-02-26T15:03:12;1.40;;;0.60;;
46613;SDS011;32338;50.430;6.806;2023-02-26T15:05:56;1.13;;;0.60;;
46613;SDS011;32338;50.430;6.806;2023-02-26T15:08:35;3.67;;;0.68;;
46613;SDS011;32338;50.430;6.806;2023-02-26T15:11:28;0.95;;;0.57;;
46613;SDS011;32338;50.430;6.806;2023-02-26T15:14:10;1.63;;;0.40;;
46613;SDS011;32338;50.430;6.806;2023-02-26T15:16:55;1.23;;;0.50;;
46613;SDS011;32338;50.430;6.806;2023-02-26T15:19:33;0.77;;;0.60;;
46613;SDS011;32338;50.430;6.806;2023-02-26T15:22:15;5.50;;;0.50;;
46613;SDS011;32338;50.430;6.806;2023-02-26T15:24:54;4.25;;;0.50;;
46613;SDS011;32338;50.430;6.806;2023-02-26T15:27:21;1.75;;;0.60;;
46613;SDS011;32338;50.430;6.806;2023-02-26T15:29:49;4.63;;;0.80;;
46613;SDS011;32338;50.430;6.806;2023-02-26T15:32:21;2.45;;;0.70;;
46613;SDS011;32338;50.430;6.806;2023-02-26T15:34:53;1.15;;;0.55;;
46613;SDS011;32338;50.430;6.806;2023-02-26T15:37:24;1.55;;;0.50;;